sensor_id;sensor_type;location;lat;lon;timestamp;P1;durP1;ratioP1;P2;durP2;ratioP2
55260;SDS011;41123;51.416;6.758;2022-08-19T00:00:19;11.15;;;6.43;;
55260;SDS011;41123;51.416;6.758;2022-08-19T00:02:45;10.07;;;6.25;;
55260;SDS011;41123;51.416;6.758;2022-08-19T00:05:12;9.15;;;6.28;;
55260;SDS011;41123;51.416;6.758;2022-08-19T00:07:38;10.93;;;6.43;;
55260;SDS011;41123;51.416;6.758;2022-08-19T00:10:05;10.60;;;6.45;;
55260;SDS011;41123;51.416;6.758;2022-08-19T00:12:33;11.20;;;6.68;;
55260;SDS011;41123;51.416;6.758;2022-08-19T00:15:00;12.55;;;7.20;;
55260;SDS011;41123;51.416;6.758;2022-08-19T00:17:26;11.02;;;6.30;;
55260;SDS011;41123;51.416;6.758;2022-08-19T00:19:53;9.98;;;6.88;;
55260;SDS011;41123;51.416;6.758;2022-08-19T00:22:19;10.02;;;6.05;;
55260;SDS011;41123;51.416;6.758;2022-08-19T00:24:45;10.27;;;6.13;;
55260;SDS011;41123;51.416;6.758;2022-08-19T00:27:12;10.63;;;6.18;;
55260;SDS011;41123;51.416;6.758;2022-08-19T00:29:38;11.02;;;6.28;;
55260;SDS011;41123;51.416;6.758;2022-08-19T00:32:04;10.40;;;6.07;;
55260;SDS011;41123;51.416;6.758;2022-08-19T00:34:31;9.68;;;6.32;;
55260;SDS011;41123;51.416;6.758;2022-08-19T00:36:58;9.55;;;6.00;;
55260;SDS011;41123;51.416;6.758;2022-08-19T00:39:24;10.18;;;6.07;;
55260;SDS011;41123;51.416;6.758;2022-08-19T00:41:51;8.77;;;5.93;;
55260;SDS011;41123;51.416;6.758;2022-08-19T00:44:20;11.90;;;6.35;;
55260;SDS011;41123;51.416;6.758;2022-08-19T00:46:48;8.80;;;6.00;;
55260;SDS011;41123;51.416;6.758;2022-08-19T00:49:16;9.27;;;6.00;;
55260;SDS011;41123;51.416;6.758;2022-08-19T00:51:48;10.50;;;6.20;;
55260;SDS011;41123;51.416;6.758;2022-08-19T00:54:16;11.65;;;6.45;;
55260;SDS011;41123;51.416;6.758;2022-08-19T00:56:42;9.75;;;6.43;;
55260;SDS011;41123;51.416;6.758;2022-08-19T00:59:10;10.35;;;6.30;;
55260;SDS011;41123;51.416;6.758;2022-08-19T01:01:37;10.85;;;5.88;;
55260;SDS011;41123;51.416;6.758;2022-08-19T01:04:04;10.65;;;6.35;;
55260;SDS011;41123;51.416;6.758;2022-08-19T01:06:30;11.65;;;6.30;;
55260;SDS011;41123;51.416;6.758;2022-08-19T01:08:58;12.77;;;6.47;;
55260;SDS011;41123;51.416;6.758;2022-08-19T01:11:24;9.63;;;6.05;;
55260;SDS011;41123;51.416;6.758;2022-08-19T01:17:39;9.68;;;5.93;;
55260;SDS011;41123;51.416;6.758;2022-08-19T01:20:08;10.73;;;6.50;;
55260;SDS011;41123;51.416;6.758;2022-08-19T01:22:41;10.30;;;6.30;;
55260;SDS011;41123;51.416;6.758;2022-08-19T01:25:08;11.05;;;6.57;;
55260;SDS011;41123;51.416;6.758;2022-08-19T01:27:39;11.07;;;6.32;;
55260;SDS011;41123;51.416;6.758;2022-08-19T01:30:06;10.32;;;6.43;;
55260;SDS011;41123;51.416;6.758;2022-08-19T01:32:33;10.65;;;6.47;;
55260;SDS011;41123;51.416;6.758;2022-08-19T01:35:00;10.73;;;6.57;;
55260;SDS011;41123;51.416;6.758;2022-08-19T01:37:27;11.07;;;7.10;;
55260;SDS011;41123;51.416;6.758;2022-08-19T01:39:54;11.70;;;7.18;;
55260;SDS011;41123;51.416;6.758;2022-08-19T01:42:20;11.18;;;6.65;;
55260;SDS011;41123;51.416;6.758;2022-08-19T01:44:47;10.75;;;7.10;;
55260;SDS011;41123;51.416;6.758;2022-08-19T01:47:14;11.35;;;7.22;;
55260;SDS011;41123;51.416;6.758;2022-08-19T01:49:40;10.60;;;6.87;;
55260;SDS011;41123;51.416;6.758;2022-08-19T01:52:06;12.23;;;6.67;;
55260;SDS011;41123;51.416;6.758;2022-08-19T01:54:33;12.13;;;7.30;;
55260;SDS011;41123;51.416;6.758;2022-08-19T01:57:07;9.35;;;6.75;;
55260;SDS011;41123;51.416;6.758;2022-08-19T01:59:34;10.65;;;7.32;;
55260;SDS011;41123;51.416;6.758;2022-08-19T02:02:02;11.10;;;7.32;;
55260;SDS011;41123;51.416;6.758;2022-08-19T02:04:31;13.02;;;7.13;;
55260;SDS011;41123;51.416;6.758;2022-08-19T02:06:57;10.23;;;7.10;;
55260;SDS011;41123;51.416;6.758;2022-08-19T02:09:23;9.82;;;7.32;;
55260;SDS011;41123;51.416;6.758;2022-08-19T02:11:50;11.10;;;7.30;;
55260;SDS011;41123;51.416;6.758;2022-08-19T02:14:16;10.23;;;7.10;;
55260;SDS011;41123;51.416;6.758;2022-08-19T02:16:42;11.27;;;7.50;;
55260;SDS011;41123;51.416;6.758;2022-08-19T02:19:08;14.07;;;8.00;;
55260;SDS011;41123;51.416;6.758;2022-08-19T02:21:35;12.10;;;7.80;;
55260;SDS011;41123;51.416;6.758;2022-08-19T02:24:02;12.70;;;8.50;;
55260;SDS011;41123;51.416;6.758;2022-08-19T02:26:29;11.52;;;7.85;;
55260;SDS011;41123;51.416;6.758;2022-08-19T02:28:55;10.85;;;8.10;;
55260;SDS011;41123;51.416;6.758;2022-08-19T02:31:22;13.13;;;8.20;;
55260;SDS011;41123;51.416;6.758;2022-08-19T02:33:49;12.00;;;8.23;;
55260;SDS011;41123;51.416;6.758;2022-08-19T02:36:16;13.40;;;7.82;;
55260;SDS011;41123;51.416;6.758;2022-08-19T02:38:43;11.48;;;8.40;;
55260;SDS011;41123;51.416;6.758;2022-08-19T02:41:17;12.43;;;8.30;;
55260;SDS011;41123;51.416;6.758;2022-08-19T02:43:44;11.93;;;8.07;;
55260;SDS011;41123;51.416;6.758;2022-08-19T02:46:20;12.90;;;8.52;;
55260;SDS011;41123;51.416;6.758;2022-08-19T02:48:51;16.20;;;8.68;;
55260;SDS011;41123;51.416;6.758;2022-08-19T02:51:22;13.80;;;8.90;;
55260;SDS011;41123;51.416;6.758;2022-08-19T02:53:49;14.40;;;8.70;;
55260;SDS011;41123;51.416;6.758;2022-08-19T02:56:15;14.93;;;9.25;;
55260;SDS011;41123;51.416;6.758;2022-08-19T02:58:42;14.48;;;9.35;;
55260;SDS011;41123;51.416;6.758;2022-08-19T03:01:08;13.98;;;9.45;;
55260;SDS011;41123;51.416;6.758;2022-08-19T03:03:36;15.50;;;9.20;;
55260;SDS011;41123;51.416;6.758;2022-08-19T03:06:11;13.35;;;9.10;;
55260;SDS011;41123;51.416;6.758;2022-08-19T03:08:38;12.10;;;8.70;;
55260;SDS011;41123;51.416;6.758;2022-08-19T03:11:05;12.82;;;8.35;;
55260;SDS011;41123;51.416;6.758;2022-08-19T03:13:31;10.33;;;7.90;;
55260;SDS011;41123;51.416;6.758;2022-08-19T03:15:58;11.68;;;8.15;;
55260;SDS011;41123;51.416;6.758;2022-08-19T03:18:24;11.23;;;7.80;;
55260;SDS011;41123;51.416;6.758;2022-08-19T03:20:52;11.70;;;8.20;;
55260;SDS011;41123;51.416;6.758;2022-08-19T03:23:19;11.73;;;8.23;;
55260;SDS011;41123;51.416;6.758;2022-08-19T03:25:47;13.82;;;8.63;;
55260;SDS011;41123;51.416;6.758;2022-08-19T03:28:14;12.77;;;8.52;;
55260;SDS011;41123;51.416;6.758;2022-08-19T03:30:41;13.77;;;8.48;;
55260;SDS011;41123;51.416;6.758;2022-08-19T03:33:09;15.20;;;8.68;;
55260;SDS011;41123;51.416;6.758;2022-08-19T03:35:36;12.30;;;8.90;;
55260;SDS011;41123;51.416;6.758;2022-08-19T03:38:06;12.20;;;9.13;;
55260;SDS011;41123;51.416;6.758;2022-08-19T03:40:32;16.35;;;11.35;;
55260;SDS011;41123;51.416;6.758;2022-08-19T03:43:02;17.50;;;11.38;;
55260;SDS011;41123;51.416;6.758;2022-08-19T03:45:28;18.10;;;12.23;;
55260;SDS011;41123;51.416;6.758;2022-08-19T03:47:54;19.58;;;12.18;;
55260;SDS011;41123;51.416;6.758;2022-08-19T03:50:21;19.65;;;13.10;;
55260;SDS011;41123;51.416;6.758;2022-08-19T03:52:48;20.15;;;13.23;;
55260;SDS011;41123;51.416;6.758;2022-08-19T03:55:15;17.00;;;12.57;;
55260;SDS011;41123;51.416;6.758;2022-08-19T03:57:41;20.80;;;13.15;;
55260;SDS011;41123;51.416;6.758;2022-08-19T04:00:08;19.63;;;12.52;;
55260;SDS011;41123;51.416;6.758;2022-08-19T04:02:34;18.75;;;13.02;;
55260;SDS011;41123;51.416;6.758;2022-08-19T04:05:00;21.85;;;14.25;;
55260;SDS011;41123;51.416;6.758;2022-08-19T04:07:27;22.60;;;14.63;;
55260;SDS011;41123;51.416;6.758;2022-08-19T04:09:53;20.77;;;14.27;;
55260;SDS011;41123;51.416;6.758;2022-08-19T04:12:19;21.58;;;14.65;;
55260;SDS011;41123;51.416;6.758;2022-08-19T04:14:46;23.83;;;15.27;;
55260;SDS011;41123;51.416;6.758;2022-08-19T04:17:12;28.38;;;15.65;;
55260;SDS011;41123;51.416;6.758;2022-08-19T04:19:39;25.60;;;16.90;;
55260;SDS011;41123;51.416;6.758;2022-08-19T04:22:06;25.45;;;16.83;;
55260;SDS011;41123;51.416;6.758;2022-08-19T04:24:33;24.92;;;17.55;;
55260;SDS011;41123;51.416;6.758;2022-08-19T04:27:02;25.00;;;16.73;;
55260;SDS011;41123;51.416;6.758;2022-08-19T04:29:29;23.67;;;16.50;;
55260;SDS011;41123;51.416;6.758;2022-08-19T04:31:55;21.08;;;15.23;;
55260;SDS011;41123;51.416;6.758;2022-08-19T04:34:23;22.70;;;14.52;;
55260;SDS011;41123;51.416;6.758;2022-08-19T04:36:49;21.17;;;14.10;;
55260;SDS011;41123;51.416;6.758;2022-08-19T04:39:18;23.50;;;14.45;;
55260;SDS011;41123;51.416;6.758;2022-08-19T04:41:45;23.33;;;14.70;;
55260;SDS011;41123;51.416;6.758;2022-08-19T04:44:31;23.92;;;15.73;;
55260;SDS011;41123;51.416;6.758;2022-08-19T04:46:57;25.15;;;15.90;;
55260;SDS011;41123;51.416;6.758;2022-08-19T04:49:23;28.88;;;17.27;;
55260;SDS011;41123;51.416;6.758;2022-08-19T04:51:51;29.48;;;17.30;;
55260;SDS011;41123;51.416;6.758;2022-08-19T04:54:19;30.83;;;18.55;;
55260;SDS011;41123;51.416;6.758;2022-08-19T04:56:52;25.30;;;17.45;;
55260;SDS011;41123;51.416;6.758;2022-08-19T04:59:19;25.47;;;17.00;;
55260;SDS011;41123;51.416;6.758;2022-08-19T05:01:46;25.65;;;16.20;;
55260;SDS011;41123;51.416;6.758;2022-08-19T05:04:15;23.13;;;15.68;;
55260;SDS011;41123;51.416;6.758;2022-08-19T05:06:42;22.75;;;14.98;;
55260;SDS011;41123;51.416;6.758;2022-08-19T05:09:09;21.75;;;14.45;;
55260;SDS011;41123;51.416;6.758;2022-08-19T05:11:35;23.75;;;14.10;;
55260;SDS011;41123;51.416;6.758;2022-08-19T05:14:06;19.90;;;13.55;;
55260;SDS011;41123;51.416;6.758;2022-08-19T05:16:32;22.80;;;13.50;;
55260;SDS011;41123;51.416;6.758;2022-08-19T05:18:59;21.70;;;13.15;;
55260;SDS011;41123;51.416;6.758;2022-08-19T05:21:45;19.38;;;12.77;;
55260;SDS011;41123;51.416;6.758;2022-08-19T05:24:31;20.13;;;13.60;;
55260;SDS011;41123;51.416;6.758;2022-08-19T05:27:01;23.05;;;14.90;;
55260;SDS011;41123;51.416;6.758;2022-08-19T05:29:28;28.00;;;17.53;;
55260;SDS011;41123;51.416;6.758;2022-08-19T05:31:54;31.60;;;20.90;;
55260;SDS011;41123;51.416;6.758;2022-08-19T05:34:22;37.08;;;23.45;;
55260;SDS011;41123;51.416;6.758;2022-08-19T05:36:50;42.63;;;27.33;;
55260;SDS011;41123;51.416;6.758;2022-08-19T05:39:20;49.33;;;30.48;;
55260;SDS011;41123;51.416;6.758;2022-08-19T05:41:51;49.63;;;30.33;;
55260;SDS011;41123;51.416;6.758;2022-08-19T05:44:18;49.78;;;30.88;;
55260;SDS011;41123;51.416;6.758;2022-08-19T05:46:46;52.15;;;32.08;;
55260;SDS011;41123;51.416;6.758;2022-08-19T05:49:13;47.90;;;30.08;;
55260;SDS011;41123;51.416;6.758;2022-08-19T05:55:28;38.75;;;25.52;;
55260;SDS011;41123;51.416;6.758;2022-08-19T05:57:55;56.40;;;35.78;;
55260;SDS011;41123;51.416;6.758;2022-08-19T06:00:21;59.37;;;38.03;;
55260;SDS011;41123;51.416;6.758;2022-08-19T06:02:48;62.60;;;39.85;;
55260;SDS011;41123;51.416;6.758;2022-08-19T06:05:16;64.72;;;40.15;;
55260;SDS011;41123;51.416;6.758;2022-08-19T06:07:42;68.00;;;42.07;;
55260;SDS011;41123;51.416;6.758;2022-08-19T06:10:09;69.27;;;42.27;;
55260;SDS011;41123;51.416;6.758;2022-08-19T06:12:36;67.32;;;42.08;;
55260;SDS011;41123;51.416;6.758;2022-08-19T06:15:07;67.90;;;42.75;;
55260;SDS011;41123;51.416;6.758;2022-08-19T06:17:34;69.40;;;43.67;;
55260;SDS011;41123;51.416;6.758;2022-08-19T06:20:00;67.70;;;43.93;;
55260;SDS011;41123;51.416;6.758;2022-08-19T06:22:27;69.82;;;44.13;;
55260;SDS011;41123;51.416;6.758;2022-08-19T06:24:54;71.03;;;45.03;;
55260;SDS011;41123;51.416;6.758;2022-08-19T06:27:20;69.65;;;44.45;;
55260;SDS011;41123;51.416;6.758;2022-08-19T06:29:47;66.93;;;43.55;;
55260;SDS011;41123;51.416;6.758;2022-08-19T06:32:14;73.15;;;44.88;;
55260;SDS011;41123;51.416;6.758;2022-08-19T06:34:41;71.05;;;44.60;;
55260;SDS011;41123;51.416;6.758;2022-08-19T06:37:08;73.15;;;45.45;;
55260;SDS011;41123;51.416;6.758;2022-08-19T06:39:35;68.82;;;43.60;;
55260;SDS011;41123;51.416;6.758;2022-08-19T06:42:04;70.22;;;43.88;;
55260;SDS011;41123;51.416;6.758;2022-08-19T06:44:34;68.55;;;43.45;;
55260;SDS011;41123;51.416;6.758;2022-08-19T06:47:06;70.90;;;43.40;;
55260;SDS011;41123;51.416;6.758;2022-08-19T06:49:32;68.32;;;44.15;;
55260;SDS011;41123;51.416;6.758;2022-08-19T06:51:59;70.70;;;44.77;;
55260;SDS011;41123;51.416;6.758;2022-08-19T06:54:26;70.13;;;43.15;;
55260;SDS011;41123;51.416;6.758;2022-08-19T06:56:54;67.83;;;43.43;;
55260;SDS011;41123;51.416;6.758;2022-08-19T06:59:22;67.70;;;42.80;;
55260;SDS011;41123;51.416;6.758;2022-08-19T07:01:53;65.47;;;42.28;;
55260;SDS011;41123;51.416;6.758;2022-08-19T07:04:24;71.68;;;43.28;;
55260;SDS011;41123;51.416;6.758;2022-08-19T07:06:56;67.25;;;43.95;;
55260;SDS011;41123;51.416;6.758;2022-08-19T07:09:23;64.27;;;41.80;;
55260;SDS011;41123;51.416;6.758;2022-08-19T07:11:50;70.17;;;42.53;;
55260;SDS011;41123;51.416;6.758;2022-08-19T07:17:11;68.10;;;41.83;;
55260;SDS011;41123;51.416;6.758;2022-08-19T07:19:38;65.80;;;41.10;;
55260;SDS011;41123;51.416;6.758;2022-08-19T07:22:05;60.40;;;40.03;;
55260;SDS011;41123;51.416;6.758;2022-08-19T07:24:32;59.90;;;39.08;;
55260;SDS011;41123;51.416;6.758;2022-08-19T07:27:02;58.50;;;37.75;;
55260;SDS011;41123;51.416;6.758;2022-08-19T07:29:40;59.17;;;37.27;;
55260;SDS011;41123;51.416;6.758;2022-08-19T07:32:06;59.10;;;36.00;;
55260;SDS011;41123;51.416;6.758;2022-08-19T07:34:34;57.03;;;36.20;;
55260;SDS011;41123;51.416;6.758;2022-08-19T07:39:56;49.88;;;30.73;;
55260;SDS011;41123;51.416;6.758;2022-08-19T07:42:22;50.90;;;31.25;;
55260;SDS011;41123;51.416;6.758;2022-08-19T07:44:48;49.55;;;31.38;;
55260;SDS011;41123;51.416;6.758;2022-08-19T07:47:14;53.28;;;31.23;;
55260;SDS011;41123;51.416;6.758;2022-08-19T07:49:43;50.22;;;30.70;;
55260;SDS011;41123;51.416;6.758;2022-08-19T07:52:09;48.90;;;28.98;;
55260;SDS011;41123;51.416;6.758;2022-08-19T07:54:37;46.35;;;27.73;;
55260;SDS011;41123;51.416;6.758;2022-08-19T07:57:03;41.55;;;26.42;;
55260;SDS011;41123;51.416;6.758;2022-08-19T07:59:30;44.20;;;26.30;;
55260;SDS011;41123;51.416;6.758;2022-08-19T08:01:57;44.72;;;26.00;;
55260;SDS011;41123;51.416;6.758;2022-08-19T08:04:25;39.33;;;23.88;;
55260;SDS011;41123;51.416;6.758;2022-08-19T08:07:10;40.00;;;24.05;;
55260;SDS011;41123;51.416;6.758;2022-08-19T08:09:55;43.15;;;23.55;;
55260;SDS011;41123;51.416;6.758;2022-08-19T08:12:24;39.63;;;23.25;;
55260;SDS011;41123;51.416;6.758;2022-08-19T08:14:58;40.55;;;21.48;;
55260;SDS011;41123;51.416;6.758;2022-08-19T08:17:27;33.90;;;19.60;;
55260;SDS011;41123;51.416;6.758;2022-08-19T08:19:54;35.58;;;19.30;;
55260;SDS011;41123;51.416;6.758;2022-08-19T08:22:22;31.93;;;18.67;;
55260;SDS011;41123;51.416;6.758;2022-08-19T08:25:11;33.40;;;19.80;;
55260;SDS011;41123;51.416;6.758;2022-08-19T08:27:39;32.63;;;18.63;;
55260;SDS011;41123;51.416;6.758;2022-08-19T08:30:16;32.63;;;18.20;;
55260;SDS011;41123;51.416;6.758;2022-08-19T08:32:43;31.17;;;17.67;;
55260;SDS011;41123;51.416;6.758;2022-08-19T08:35:11;33.30;;;18.70;;
55260;SDS011;41123;51.416;6.758;2022-08-19T08:37:37;33.15;;;19.90;;
55260;SDS011;41123;51.416;6.758;2022-08-19T08:40:06;32.10;;;19.83;;
55260;SDS011;41123;51.416;6.758;2022-08-19T08:42:35;37.90;;;20.33;;
55260;SDS011;41123;51.416;6.758;2022-08-19T08:45:10;41.42;;;23.75;;
55260;SDS011;41123;51.416;6.758;2022-08-19T08:47:40;34.30;;;19.97;;
55260;SDS011;41123;51.416;6.758;2022-08-19T08:50:29;35.80;;;20.57;;
55260;SDS011;41123;51.416;6.758;2022-08-19T08:52:56;34.63;;;20.83;;
55260;SDS011;41123;51.416;6.758;2022-08-19T08:55:23;34.88;;;20.08;;
55260;SDS011;41123;51.416;6.758;2022-08-19T08:57:55;46.35;;;20.10;;
55260;SDS011;41123;51.416;6.758;2022-08-19T09:00:34;32.05;;;18.67;;
55260;SDS011;41123;51.416;6.758;2022-08-19T09:03:02;34.25;;;20.33;;
55260;SDS011;41123;51.416;6.758;2022-08-19T09:05:40;36.03;;;22.88;;
55260;SDS011;41123;51.416;6.758;2022-08-19T09:08:13;36.08;;;21.60;;
55260;SDS011;41123;51.416;6.758;2022-08-19T09:14:35;35.47;;;21.40;;
55260;SDS011;41123;51.416;6.758;2022-08-19T09:17:06;35.23;;;21.23;;
55260;SDS011;41123;51.416;6.758;2022-08-19T09:19:34;39.15;;;21.63;;
55260;SDS011;41123;51.416;6.758;2022-08-19T09:22:00;39.77;;;22.33;;
55260;SDS011;41123;51.416;6.758;2022-08-19T09:24:26;34.97;;;21.97;;
55260;SDS011;41123;51.416;6.758;2022-08-19T09:26:53;38.17;;;22.45;;
55260;SDS011;41123;51.416;6.758;2022-08-19T09:29:19;36.58;;;22.00;;
55260;SDS011;41123;51.416;6.758;2022-08-19T09:31:46;35.45;;;22.30;;
55260;SDS011;41123;51.416;6.758;2022-08-19T09:34:12;37.30;;;21.90;;
55260;SDS011;41123;51.416;6.758;2022-08-19T09:36:38;35.72;;;22.75;;
55260;SDS011;41123;51.416;6.758;2022-08-19T09:39:05;38.20;;;22.20;;
55260;SDS011;41123;51.416;6.758;2022-08-19T09:41:31;33.85;;;21.30;;
55260;SDS011;41123;51.416;6.758;2022-08-19T09:43:58;32.15;;;19.70;;
55260;SDS011;41123;51.416;6.758;2022-08-19T09:46:26;33.43;;;21.00;;
55260;SDS011;41123;51.416;6.758;2022-08-19T09:48:52;34.85;;;21.10;;
55260;SDS011;41123;51.416;6.758;2022-08-19T09:51:20;37.30;;;22.23;;
55260;SDS011;41123;51.416;6.758;2022-08-19T09:53:47;36.92;;;21.85;;
55260;SDS011;41123;51.416;6.758;2022-08-19T09:56:18;38.63;;;22.50;;
55260;SDS011;41123;51.416;6.758;2022-08-19T09:58:45;40.07;;;24.47;;
55260;SDS011;41123;51.416;6.758;2022-08-19T10:01:16;37.53;;;23.25;;
55260;SDS011;41123;51.416;6.758;2022-08-19T10:03:43;39.95;;;24.25;;
55260;SDS011;41123;51.416;6.758;2022-08-19T10:06:12;36.70;;;22.02;;
55260;SDS011;41123;51.416;6.758;2022-08-19T10:08:39;35.05;;;21.65;;
55260;SDS011;41123;51.416;6.758;2022-08-19T10:11:05;41.03;;;21.45;;
55260;SDS011;41123;51.416;6.758;2022-08-19T10:13:32;36.90;;;21.85;;
55260;SDS011;41123;51.416;6.758;2022-08-19T10:16:07;35.85;;;21.95;;
55260;SDS011;41123;51.416;6.758;2022-08-19T10:18:34;33.40;;;20.73;;
55260;SDS011;41123;51.416;6.758;2022-08-19T10:21:03;34.80;;;21.17;;
55260;SDS011;41123;51.416;6.758;2022-08-19T10:23:33;30.55;;;19.77;;
55260;SDS011;41123;51.416;6.758;2022-08-19T10:26:00;27.47;;;18.40;;
55260;SDS011;41123;51.416;6.758;2022-08-19T10:28:26;28.25;;;18.10;;
55260;SDS011;41123;51.416;6.758;2022-08-19T10:30:52;31.88;;;18.80;;
55260;SDS011;41123;51.416;6.758;2022-08-19T10:33:19;24.67;;;17.10;;
55260;SDS011;41123;51.416;6.758;2022-08-19T10:39:34;25.08;;;16.67;;
55260;SDS011;41123;51.416;6.758;2022-08-19T10:42:07;25.52;;;16.42;;
55260;SDS011;41123;51.416;6.758;2022-08-19T10:44:35;27.17;;;16.05;;
55260;SDS011;41123;51.416;6.758;2022-08-19T10:47:02;25.67;;;16.42;;
55260;SDS011;41123;51.416;6.758;2022-08-19T10:49:29;26.05;;;15.82;;
55260;SDS011;41123;51.416;6.758;2022-08-19T10:51:55;23.03;;;14.67;;
55260;SDS011;41123;51.416;6.758;2022-08-19T10:54:40;23.53;;;14.90;;
55260;SDS011;41123;51.416;6.758;2022-08-19T10:57:30;24.27;;;14.93;;
55260;SDS011;41123;51.416;6.758;2022-08-19T10:59:56;21.25;;;13.70;;
55260;SDS011;41123;51.416;6.758;2022-08-19T11:02:24;22.40;;;13.85;;
55260;SDS011;41123;51.416;6.758;2022-08-19T11:04:51;24.38;;;13.77;;
55260;SDS011;41123;51.416;6.758;2022-08-19T11:07:17;22.50;;;13.05;;
55260;SDS011;41123;51.416;6.758;2022-08-19T11:09:43;18.02;;;11.75;;
55260;SDS011;41123;51.416;6.758;2022-08-19T11:12:11;16.95;;;10.90;;
55260;SDS011;41123;51.416;6.758;2022-08-19T11:14:38;19.27;;;11.88;;
55260;SDS011;41123;51.416;6.758;2022-08-19T11:17:05;17.90;;;11.15;;
55260;SDS011;41123;51.416;6.758;2022-08-19T11:19:31;19.15;;;11.43;;
55260;SDS011;41123;51.416;6.758;2022-08-19T11:21:58;17.30;;;11.23;;
55260;SDS011;41123;51.416;6.758;2022-08-19T11:24:29;15.48;;;10.35;;
55260;SDS011;41123;51.416;6.758;2022-08-19T11:27:08;16.83;;;9.27;;
55260;SDS011;41123;51.416;6.758;2022-08-19T11:29:36;16.10;;;10.55;;
55260;SDS011;41123;51.416;6.758;2022-08-19T11:32:04;14.63;;;9.77;;
55260;SDS011;41123;51.416;6.758;2022-08-19T11:34:30;12.83;;;8.03;;
55260;SDS011;41123;51.416;6.758;2022-08-19T11:36:57;13.63;;;8.93;;
55260;SDS011;41123;51.416;6.758;2022-08-19T11:39:25;17.05;;;9.75;;
55260;SDS011;41123;51.416;6.758;2022-08-19T11:41:52;13.60;;;9.73;;
55260;SDS011;41123;51.416;6.758;2022-08-19T11:44:18;13.02;;;8.23;;
55260;SDS011;41123;51.416;6.758;2022-08-19T11:46:44;14.80;;;10.27;;
55260;SDS011;41123;51.416;6.758;2022-08-19T11:49:12;17.05;;;9.48;;
55260;SDS011;41123;51.416;6.758;2022-08-19T11:51:39;12.38;;;8.48;;
55260;SDS011;41123;51.416;6.758;2022-08-19T11:54:07;13.35;;;7.72;;
55260;SDS011;41123;51.416;6.758;2022-08-19T11:56:36;13.80;;;8.27;;
55260;SDS011;41123;51.416;6.758;2022-08-19T11:59:02;13.82;;;7.60;;
55260;SDS011;41123;51.416;6.758;2022-08-19T12:01:29;14.05;;;7.63;;
55260;SDS011;41123;51.416;6.758;2022-08-19T12:03:56;12.95;;;7.53;;
55260;SDS011;41123;51.416;6.758;2022-08-19T12:06:30;12.82;;;7.18;;
55260;SDS011;41123;51.416;6.758;2022-08-19T12:08:58;13.97;;;7.43;;
55260;SDS011;41123;51.416;6.758;2022-08-19T12:11:24;13.35;;;7.30;;
55260;SDS011;41123;51.416;6.758;2022-08-19T12:13:50;12.48;;;7.45;;
55260;SDS011;41123;51.416;6.758;2022-08-19T12:16:18;10.63;;;6.55;;
55260;SDS011;41123;51.416;6.758;2022-08-19T12:18:44;12.73;;;7.20;;
55260;SDS011;41123;51.416;6.758;2022-08-19T12:21:15;13.43;;;7.55;;
55260;SDS011;41123;51.416;6.758;2022-08-19T12:23:42;12.83;;;7.30;;
55260;SDS011;41123;51.416;6.758;2022-08-19T12:26:10;12.87;;;6.13;;
55260;SDS011;41123;51.416;6.758;2022-08-19T12:28:37;10.77;;;5.88;;
55260;SDS011;41123;51.416;6.758;2022-08-19T12:31:03;12.00;;;6.57;;
55260;SDS011;41123;51.416;6.758;2022-08-19T12:33:29;13.27;;;6.53;;
55260;SDS011;41123;51.416;6.758;2022-08-19T12:36:00;10.02;;;5.82;;
55260;SDS011;41123;51.416;6.758;2022-08-19T12:38:26;11.27;;;5.70;;
55260;SDS011;41123;51.416;6.758;2022-08-19T12:40:53;10.80;;;6.55;;
55260;SDS011;41123;51.416;6.758;2022-08-19T12:43:19;9.07;;;5.47;;
55260;SDS011;41123;51.416;6.758;2022-08-19T12:45:50;12.35;;;6.20;;
55260;SDS011;41123;51.416;6.758;2022-08-19T12:48:16;14.00;;;6.32;;
55260;SDS011;41123;51.416;6.758;2022-08-19T12:50:44;14.07;;;6.22;;
55260;SDS011;41123;51.416;6.758;2022-08-19T12:53:11;15.23;;;5.93;;
55260;SDS011;41123;51.416;6.758;2022-08-19T12:55:37;20.93;;;6.07;;
55260;SDS011;41123;51.416;6.758;2022-08-19T12:58:03;13.48;;;5.72;;
55260;SDS011;41123;51.416;6.758;2022-08-19T13:00:29;15.27;;;7.20;;
55260;SDS011;41123;51.416;6.758;2022-08-19T13:02:57;11.85;;;4.88;;
55260;SDS011;41123;51.416;6.758;2022-08-19T13:05:26;12.63;;;5.07;;
55260;SDS011;41123;51.416;6.758;2022-08-19T13:07:53;9.30;;;4.93;;
55260;SDS011;41123;51.416;6.758;2022-08-19T13:10:22;9.80;;;5.13;;
55260;SDS011;41123;51.416;6.758;2022-08-19T13:12:49;8.43;;;4.90;;
55260;SDS011;41123;51.416;6.758;2022-08-19T13:15:16;9.37;;;5.00;;
55260;SDS011;41123;51.416;6.758;2022-08-19T13:17:46;11.52;;;4.78;;
55260;SDS011;41123;51.416;6.758;2022-08-19T13:20:14;10.02;;;4.90;;
55260;SDS011;41123;51.416;6.758;2022-08-19T13:22:41;6.93;;;4.88;;
55260;SDS011;41123;51.416;6.758;2022-08-19T13:25:09;9.13;;;5.10;;
55260;SDS011;41123;51.416;6.758;2022-08-19T13:27:36;9.93;;;4.90;;
55260;SDS011;41123;51.416;6.758;2022-08-19T13:30:03;7.18;;;3.90;;
55260;SDS011;41123;51.416;6.758;2022-08-19T13:32:49;11.93;;;4.73;;
55260;SDS011;41123;51.416;6.758;2022-08-19T13:35:34;8.85;;;4.32;;
55260;SDS011;41123;51.416;6.758;2022-08-19T13:38:00;5.97;;;4.07;;
55260;SDS011;41123;51.416;6.758;2022-08-19T13:40:30;7.68;;;4.15;;
55260;SDS011;41123;51.416;6.758;2022-08-19T13:42:59;10.18;;;4.57;;
55260;SDS011;41123;51.416;6.758;2022-08-19T13:45:26;9.77;;;4.38;;
55260;SDS011;41123;51.416;6.758;2022-08-19T13:47:53;9.00;;;4.70;;
55260;SDS011;41123;51.416;6.758;2022-08-19T13:50:22;10.45;;;4.50;;
55260;SDS011;41123;51.416;6.758;2022-08-19T13:52:51;8.02;;;4.60;;
55260;SDS011;41123;51.416;6.758;2022-08-19T13:55:20;9.60;;;5.05;;
55260;SDS011;41123;51.416;6.758;2022-08-19T13:57:55;10.70;;;4.80;;
55260;SDS011;41123;51.416;6.758;2022-08-19T14:00:25;8.53;;;4.87;;
55260;SDS011;41123;51.416;6.758;2022-08-19T14:02:52;8.00;;;4.63;;
55260;SDS011;41123;51.416;6.758;2022-08-19T14:05:22;10.67;;;4.73;;
55260;SDS011;41123;51.416;6.758;2022-08-19T14:18:27;10.85;;;6.15;;
55260;SDS011;41123;51.416;6.758;2022-08-19T14:20:53;19.20;;;8.90;;
55260;SDS011;41123;51.416;6.758;2022-08-19T14:23:26;11.57;;;7.10;;
55260;SDS011;41123;51.416;6.758;2022-08-19T14:25:53;13.93;;;7.88;;
55260;SDS011;41123;51.416;6.758;2022-08-19T14:28:21;10.73;;;5.80;;
55260;SDS011;41123;51.416;6.758;2022-08-19T14:30:47;20.65;;;6.05;;
55260;SDS011;41123;51.416;6.758;2022-08-19T14:33:13;9.57;;;5.20;;
55260;SDS011;41123;51.416;6.758;2022-08-19T14:35:40;9.95;;;5.60;;
55260;SDS011;41123;51.416;6.758;2022-08-19T14:38:14;11.00;;;6.43;;
55260;SDS011;41123;51.416;6.758;2022-08-19T14:40:41;12.73;;;5.30;;
55260;SDS011;41123;51.416;6.758;2022-08-19T14:43:07;11.68;;;5.90;;
55260;SDS011;41123;51.416;6.758;2022-08-19T14:45:35;9.00;;;4.30;;
55260;SDS011;41123;51.416;6.758;2022-08-19T14:48:02;9.68;;;4.90;;
55260;SDS011;41123;51.416;6.758;2022-08-19T14:50:28;12.75;;;5.00;;
55260;SDS011;41123;51.416;6.758;2022-08-19T14:53:02;11.10;;;4.97;;
55260;SDS011;41123;51.416;6.758;2022-08-19T14:55:29;9.50;;;4.75;;
55260;SDS011;41123;51.416;6.758;2022-08-19T14:57:57;9.80;;;3.73;;
55260;SDS011;41123;51.416;6.758;2022-08-19T15:00:23;10.63;;;4.13;;
55260;SDS011;41123;51.416;6.758;2022-08-19T15:02:53;8.15;;;4.57;;
55260;SDS011;41123;51.416;6.758;2022-08-19T15:05:19;9.82;;;4.00;;